Main page
METAR-TAF:

METAR-TAF

Airports :

Boscombe Down, England

MoD Boscombe Down

latitude: 51-10N, longitude: 001-45W, elevation: 124 m

Current weather observation

The report was made 27 minutes ago, at 06:50 UTC
Wind 12 kt from the West
Temperature 13°C
Humidity 82%
Pressure 1017 hPa
Visibility 10 km or more

METAR: EGDM 190650Z AUTO 27012KT 9999 NCD 13/10 Q1017

Time: 08:17 (07:17 UTC)


TAF: missing

Weather observations and forecasts of more than 4000 airports (METAR and TAF reports).

The available stations are represented by yellow and red dots on the map.

Hover mouse over dot to see the name of the station.

Then click to see weather observations and forecasts.

To change the map : click on the green buttons with a black cross to zoom in, on the green button with a dash to zoom out, or on the green arrows for adjacent maps.


METAR-TAF: